sensor_id;sensor_type;location;lat;lon;timestamp;P1;durP1;ratioP1;P2;durP2;ratioP2
32292;SDS011;43233;48.608;8.838;2023-11-19T00:00:26;1.20;;;1.10;;
32292;SDS011;43233;48.608;8.838;2023-11-19T00:02:52;1.57;;;1.10;;
32292;SDS011;43233;48.608;8.838;2023-11-19T00:05:17;1.00;;;1.00;;
32292;SDS011;43233;48.608;8.838;2023-11-19T00:07:43;0.83;;;0.83;;
32292;SDS011;43233;48.608;8.838;2023-11-19T00:10:12;1.37;;;1.07;;
32292;SDS011;43233;48.608;8.838;2023-11-19T00:12:44;2.70;;;1.10;;
32292;SDS011;43233;48.608;8.838;2023-11-19T00:15:11;1.87;;;1.20;;
32292;SDS011;43233;48.608;8.838;2023-11-19T00:17:40;6.57;;;1.10;;
32292;SDS011;43233;48.608;8.838;2023-11-19T00:20:10;0.90;;;0.90;;
32292;SDS011;43233;48.608;8.838;2023-11-19T00:22:37;0.90;;;0.90;;
32292;SDS011;43233;48.608;8.838;2023-11-19T00:25:02;0.90;;;0.90;;
32292;SDS011;43233;48.608;8.838;2023-11-19T00:27:29;1.00;;;1.00;;
32292;SDS011;43233;48.608;8.838;2023-11-19T00:29:54;3.80;;;0.90;;
32292;SDS011;43233;48.608;8.838;2023-11-19T00:32:20;0.90;;;0.90;;
32292;SDS011;43233;48.608;8.838;2023-11-19T00:34:45;1.00;;;1.00;;
32292;SDS011;43233;48.608;8.838;2023-11-19T00:37:13;0.80;;;0.80;;
32292;SDS011;43233;48.608;8.838;2023-11-19T00:39:41;2.20;;;1.10;;
32292;SDS011;43233;48.608;8.838;2023-11-19T00:42:08;0.80;;;0.80;;
32292;SDS011;43233;48.608;8.838;2023-11-19T00:44:35;0.80;;;0.80;;
32292;SDS011;43233;48.608;8.838;2023-11-19T00:47:01;1.00;;;1.00;;
32292;SDS011;43233;48.608;8.838;2023-11-19T00:49:26;1.10;;;1.00;;
32292;SDS011;43233;48.608;8.838;2023-11-19T00:51:52;0.80;;;0.80;;
32292;SDS011;43233;48.608;8.838;2023-11-19T00:54:18;1.43;;;0.90;;
32292;SDS011;43233;48.608;8.838;2023-11-19T00:56:43;0.80;;;0.80;;
32292;SDS011;43233;48.608;8.838;2023-11-19T00:59:09;0.77;;;0.77;;
32292;SDS011;43233;48.608;8.838;2023-11-19T01:01:35;0.80;;;0.80;;
32292;SDS011;43233;48.608;8.838;2023-11-19T01:04:01;2.87;;;0.90;;
32292;SDS011;43233;48.608;8.838;2023-11-19T01:06:27;0.70;;;0.70;;
32292;SDS011;43233;48.608;8.838;2023-11-19T01:08:53;0.80;;;0.80;;
32292;SDS011;43233;48.608;8.838;2023-11-19T01:11:20;0.80;;;0.80;;
32292;SDS011;43233;48.608;8.838;2023-11-19T01:13:46;0.80;;;0.80;;
32292;SDS011;43233;48.608;8.838;2023-11-19T01:16:12;0.80;;;0.80;;
32292;SDS011;43233;48.608;8.838;2023-11-19T01:18:38;0.70;;;0.70;;
32292;SDS011;43233;48.608;8.838;2023-11-19T01:21:04;0.80;;;0.80;;
32292;SDS011;43233;48.608;8.838;2023-11-19T01:23:30;0.70;;;0.70;;
32292;SDS011;43233;48.608;8.838;2023-11-19T01:25:55;0.73;;;0.73;;
32292;SDS011;43233;48.608;8.838;2023-11-19T01:28:21;0.90;;;0.83;;
32292;SDS011;43233;48.608;8.838;2023-11-19T01:30:47;1.23;;;0.80;;
32292;SDS011;43233;48.608;8.838;2023-11-19T01:33:15;5.17;;;0.80;;
32292;SDS011;43233;48.608;8.838;2023-11-19T01:35:41;0.70;;;0.70;;
32292;SDS011;43233;48.608;8.838;2023-11-19T01:38:07;0.77;;;0.77;;
32292;SDS011;43233;48.608;8.838;2023-11-19T01:40:33;0.90;;;0.90;;
32292;SDS011;43233;48.608;8.838;2023-11-19T01:43:01;1.53;;;1.43;;
32292;SDS011;43233;48.608;8.838;2023-11-19T01:45:27;1.13;;;1.13;;
32292;SDS011;43233;48.608;8.838;2023-11-19T01:47:55;0.87;;;0.87;;
32292;SDS011;43233;48.608;8.838;2023-11-19T01:50:22;0.90;;;0.90;;
32292;SDS011;43233;48.608;8.838;2023-11-19T01:52:50;0.73;;;0.73;;
32292;SDS011;43233;48.608;8.838;2023-11-19T01:55:20;0.90;;;0.90;;
32292;SDS011;43233;48.608;8.838;2023-11-19T01:57:46;1.50;;;1.50;;
32292;SDS011;43233;48.608;8.838;2023-11-19T02:00:14;1.20;;;1.20;;
32292;SDS011;43233;48.608;8.838;2023-11-19T02:02:41;1.70;;;1.60;;
32292;SDS011;43233;48.608;8.838;2023-11-19T02:05:07;2.30;;;2.20;;
32292;SDS011;43233;48.608;8.838;2023-11-19T02:07:33;0.83;;;0.83;;
32292;SDS011;43233;48.608;8.838;2023-11-19T02:09:58;0.80;;;0.80;;
32292;SDS011;43233;48.608;8.838;2023-11-19T02:12:27;0.70;;;0.70;;
32292;SDS011;43233;48.608;8.838;2023-11-19T02:14:58;0.70;;;0.70;;
32292;SDS011;43233;48.608;8.838;2023-11-19T02:17:25;0.77;;;0.77;;
32292;SDS011;43233;48.608;8.838;2023-11-19T02:19:59;0.70;;;0.70;;
32292;SDS011;43233;48.608;8.838;2023-11-19T02:22:25;0.70;;;0.70;;
32292;SDS011;43233;48.608;8.838;2023-11-19T02:24:51;2.20;;;0.80;;
32292;SDS011;43233;48.608;8.838;2023-11-19T02:30:03;1.50;;;0.83;;
32292;SDS011;43233;48.608;8.838;2023-11-19T02:32:33;0.90;;;0.90;;
32292;SDS011;43233;48.608;8.838;2023-11-19T02:34:59;0.73;;;0.73;;
32292;SDS011;43233;48.608;8.838;2023-11-19T02:37:25;1.90;;;0.73;;
32292;SDS011;43233;48.608;8.838;2023-11-19T02:39:50;0.73;;;0.73;;
32292;SDS011;43233;48.608;8.838;2023-11-19T02:42:16;0.70;;;0.70;;
32292;SDS011;43233;48.608;8.838;2023-11-19T02:44:45;0.80;;;0.80;;
32292;SDS011;43233;48.608;8.838;2023-11-19T02:47:11;0.70;;;0.70;;
32292;SDS011;43233;48.608;8.838;2023-11-19T02:49:37;0.70;;;0.70;;
32292;SDS011;43233;48.608;8.838;2023-11-19T02:52:02;0.70;;;0.70;;
32292;SDS011;43233;48.608;8.838;2023-11-19T02:54:30;0.80;;;0.80;;
32292;SDS011;43233;48.608;8.838;2023-11-19T02:56:59;0.80;;;0.80;;
32292;SDS011;43233;48.608;8.838;2023-11-19T02:59:28;0.97;;;0.80;;
32292;SDS011;43233;48.608;8.838;2023-11-19T03:02:03;0.80;;;0.80;;
32292;SDS011;43233;48.608;8.838;2023-11-19T03:04:36;0.90;;;0.90;;
32292;SDS011;43233;48.608;8.838;2023-11-19T03:07:03;0.70;;;0.70;;
32292;SDS011;43233;48.608;8.838;2023-11-19T03:09:28;0.93;;;0.83;;
32292;SDS011;43233;48.608;8.838;2023-11-19T03:11:54;2.00;;;0.70;;
32292;SDS011;43233;48.608;8.838;2023-11-19T03:14:20;2.53;;;0.90;;
32292;SDS011;43233;48.608;8.838;2023-11-19T03:16:47;0.80;;;0.80;;
32292;SDS011;43233;48.608;8.838;2023-11-19T03:19:13;0.70;;;0.70;;
32292;SDS011;43233;48.608;8.838;2023-11-19T03:21:38;0.60;;;0.60;;
32292;SDS011;43233;48.608;8.838;2023-11-19T03:24:04;0.80;;;0.80;;
32292;SDS011;43233;48.608;8.838;2023-11-19T03:26:30;0.80;;;0.80;;
32292;SDS011;43233;48.608;8.838;2023-11-19T03:28:55;0.70;;;0.70;;
32292;SDS011;43233;48.608;8.838;2023-11-19T03:31:22;0.80;;;0.80;;
32292;SDS011;43233;48.608;8.838;2023-11-19T03:33:48;0.70;;;0.70;;
32292;SDS011;43233;48.608;8.838;2023-11-19T03:36:13;0.80;;;0.80;;
32292;SDS011;43233;48.608;8.838;2023-11-19T03:38:39;0.93;;;0.90;;
32292;SDS011;43233;48.608;8.838;2023-11-19T03:41:13;0.80;;;0.80;;
32292;SDS011;43233;48.608;8.838;2023-11-19T03:43:40;0.70;;;0.70;;
32292;SDS011;43233;48.608;8.838;2023-11-19T03:46:18;0.87;;;0.80;;
32292;SDS011;43233;48.608;8.838;2023-11-19T03:48:46;0.90;;;0.90;;
32292;SDS011;43233;48.608;8.838;2023-11-19T03:51:12;0.80;;;0.80;;
32292;SDS011;43233;48.608;8.838;2023-11-19T03:53:41;0.80;;;0.80;;
32292;SDS011;43233;48.608;8.838;2023-11-19T03:56:10;0.80;;;0.80;;
32292;SDS011;43233;48.608;8.838;2023-11-19T03:58:36;1.20;;;1.10;;
32292;SDS011;43233;48.608;8.838;2023-11-19T04:01:03;0.80;;;0.80;;
32292;SDS011;43233;48.608;8.838;2023-11-19T04:03:29;0.93;;;0.93;;
32292;SDS011;43233;48.608;8.838;2023-11-19T04:05:55;1.20;;;1.20;;
32292;SDS011;43233;48.608;8.838;2023-11-19T04:08:21;10.70;;;1.20;;
32292;SDS011;43233;48.608;8.838;2023-11-19T04:10:47;1.70;;;1.70;;
32292;SDS011;43233;48.608;8.838;2023-11-19T04:13:13;1.57;;;1.53;;
32292;SDS011;43233;48.608;8.838;2023-11-19T04:15:38;1.20;;;1.20;;
32292;SDS011;43233;48.608;8.838;2023-11-19T04:18:04;0.90;;;0.90;;
32292;SDS011;43233;48.608;8.838;2023-11-19T04:20:29;1.73;;;1.63;;
32292;SDS011;43233;48.608;8.838;2023-11-19T04:22:56;0.87;;;0.87;;
32292;SDS011;43233;48.608;8.838;2023-11-19T04:25:22;0.90;;;0.90;;
32292;SDS011;43233;48.608;8.838;2023-11-19T04:27:51;0.80;;;0.80;;
32292;SDS011;43233;48.608;8.838;2023-11-19T04:30:16;0.70;;;0.70;;
32292;SDS011;43233;48.608;8.838;2023-11-19T04:32:43;0.80;;;0.80;;
32292;SDS011;43233;48.608;8.838;2023-11-19T04:35:09;0.70;;;0.70;;
32292;SDS011;43233;48.608;8.838;2023-11-19T04:37:34;0.70;;;0.70;;
32292;SDS011;43233;48.608;8.838;2023-11-19T04:40:00;0.90;;;0.90;;
32292;SDS011;43233;48.608;8.838;2023-11-19T04:42:26;0.70;;;0.70;;
32292;SDS011;43233;48.608;8.838;2023-11-19T04:44:52;0.80;;;0.80;;
32292;SDS011;43233;48.608;8.838;2023-11-19T04:47:17;0.80;;;0.80;;
32292;SDS011;43233;48.608;8.838;2023-11-19T04:49:43;1.00;;;0.83;;
32292;SDS011;43233;48.608;8.838;2023-11-19T04:52:09;0.70;;;0.70;;
32292;SDS011;43233;48.608;8.838;2023-11-19T04:54:34;0.70;;;0.70;;
32292;SDS011;43233;48.608;8.838;2023-11-19T04:57:00;0.80;;;0.80;;
32292;SDS011;43233;48.608;8.838;2023-11-19T04:59:25;1.53;;;0.80;;
32292;SDS011;43233;48.608;8.838;2023-11-19T05:01:52;0.80;;;0.80;;
32292;SDS011;43233;48.608;8.838;2023-11-19T05:04:18;1.00;;;1.00;;
32292;SDS011;43233;48.608;8.838;2023-11-19T05:06:44;0.83;;;0.83;;
32292;SDS011;43233;48.608;8.838;2023-11-19T05:09:09;1.53;;;1.10;;
32292;SDS011;43233;48.608;8.838;2023-11-19T05:11:38;0.93;;;0.93;;
32292;SDS011;43233;48.608;8.838;2023-11-19T05:14:05;1.73;;;0.77;;
32292;SDS011;43233;48.608;8.838;2023-11-19T05:16:31;0.80;;;0.80;;
32292;SDS011;43233;48.608;8.838;2023-11-19T05:18:56;0.70;;;0.70;;
32292;SDS011;43233;48.608;8.838;2023-11-19T05:21:22;0.70;;;0.70;;
32292;SDS011;43233;48.608;8.838;2023-11-19T05:23:48;0.80;;;0.80;;
32292;SDS011;43233;48.608;8.838;2023-11-19T05:26:18;3.30;;;0.77;;
32292;SDS011;43233;48.608;8.838;2023-11-19T05:28:44;1.03;;;0.80;;
32292;SDS011;43233;48.608;8.838;2023-11-19T05:31:10;0.80;;;0.80;;
32292;SDS011;43233;48.608;8.838;2023-11-19T05:33:36;0.80;;;0.77;;
32292;SDS011;43233;48.608;8.838;2023-11-19T05:36:01;0.70;;;0.70;;
32292;SDS011;43233;48.608;8.838;2023-11-19T05:38:29;2.13;;;1.00;;
32292;SDS011;43233;48.608;8.838;2023-11-19T05:40:55;1.17;;;0.80;;
32292;SDS011;43233;48.608;8.838;2023-11-19T05:43:20;0.80;;;0.80;;
32292;SDS011;43233;48.608;8.838;2023-11-19T05:45:47;0.80;;;0.80;;
32292;SDS011;43233;48.608;8.838;2023-11-19T05:48:13;0.70;;;0.70;;
32292;SDS011;43233;48.608;8.838;2023-11-19T05:50:39;2.20;;;0.80;;
32292;SDS011;43233;48.608;8.838;2023-11-19T05:53:05;0.80;;;0.80;;
32292;SDS011;43233;48.608;8.838;2023-11-19T05:55:34;0.77;;;0.77;;
32292;SDS011;43233;48.608;8.838;2023-11-19T05:58:01;0.80;;;0.80;;
32292;SDS011;43233;48.608;8.838;2023-11-19T06:00:26;1.23;;;1.10;;
32292;SDS011;43233;48.608;8.838;2023-11-19T06:02:52;1.10;;;1.10;;
32292;SDS011;43233;48.608;8.838;2023-11-19T06:05:18;0.80;;;0.80;;
32292;SDS011;43233;48.608;8.838;2023-11-19T06:07:43;1.43;;;1.20;;
32292;SDS011;43233;48.608;8.838;2023-11-19T06:10:09;1.10;;;1.10;;
32292;SDS011;43233;48.608;8.838;2023-11-19T06:12:36;1.30;;;1.30;;
32292;SDS011;43233;48.608;8.838;2023-11-19T06:15:06;1.40;;;1.30;;
32292;SDS011;43233;48.608;8.838;2023-11-19T06:17:33;1.27;;;1.27;;
32292;SDS011;43233;48.608;8.838;2023-11-19T06:19:59;1.63;;;1.20;;
32292;SDS011;43233;48.608;8.838;2023-11-19T06:22:25;1.30;;;1.30;;
32292;SDS011;43233;48.608;8.838;2023-11-19T06:24:50;0.97;;;0.97;;
32292;SDS011;43233;48.608;8.838;2023-11-19T06:27:16;2.73;;;2.10;;
32292;SDS011;43233;48.608;8.838;2023-11-19T06:29:41;1.10;;;1.10;;
32292;SDS011;43233;48.608;8.838;2023-11-19T06:32:07;2.20;;;1.97;;
32292;SDS011;43233;48.608;8.838;2023-11-19T06:34:33;1.50;;;1.40;;
32292;SDS011;43233;48.608;8.838;2023-11-19T06:36:59;2.80;;;2.60;;
32292;SDS011;43233;48.608;8.838;2023-11-19T06:39:24;4.20;;;3.90;;
32292;SDS011;43233;48.608;8.838;2023-11-19T06:41:50;2.70;;;2.50;;
32292;SDS011;43233;48.608;8.838;2023-11-19T06:44:17;2.10;;;2.00;;
32292;SDS011;43233;48.608;8.838;2023-11-19T06:46:42;3.17;;;2.97;;
32292;SDS011;43233;48.608;8.838;2023-11-19T06:49:08;4.00;;;3.60;;
32292;SDS011;43233;48.608;8.838;2023-11-19T06:51:34;2.10;;;2.00;;
32292;SDS011;43233;48.608;8.838;2023-11-19T06:54:00;2.00;;;1.90;;
32292;SDS011;43233;48.608;8.838;2023-11-19T06:56:26;1.70;;;1.70;;
32292;SDS011;43233;48.608;8.838;2023-11-19T06:58:52;2.20;;;2.10;;
32292;SDS011;43233;48.608;8.838;2023-11-19T07:01:18;2.33;;;2.23;;
32292;SDS011;43233;48.608;8.838;2023-11-19T07:03:47;2.80;;;1.90;;
32292;SDS011;43233;48.608;8.838;2023-11-19T07:06:13;1.30;;;1.30;;
32292;SDS011;43233;48.608;8.838;2023-11-19T07:08:42;2.13;;;2.03;;
32292;SDS011;43233;48.608;8.838;2023-11-19T07:11:12;2.73;;;1.67;;
32292;SDS011;43233;48.608;8.838;2023-11-19T07:13:38;1.40;;;1.40;;
32292;SDS011;43233;48.608;8.838;2023-11-19T07:16:04;2.33;;;1.77;;
32292;SDS011;43233;48.608;8.838;2023-11-19T07:18:30;1.70;;;1.70;;
32292;SDS011;43233;48.608;8.838;2023-11-19T07:20:57;1.10;;;1.10;;
32292;SDS011;43233;48.608;8.838;2023-11-19T07:23:22;1.80;;;1.70;;
32292;SDS011;43233;48.608;8.838;2023-11-19T07:25:48;1.67;;;1.10;;
32292;SDS011;43233;48.608;8.838;2023-11-19T07:28:15;2.10;;;1.83;;
32292;SDS011;43233;48.608;8.838;2023-11-19T07:30:41;1.00;;;0.90;;
32292;SDS011;43233;48.608;8.838;2023-11-19T07:33:07;1.87;;;0.80;;
32292;SDS011;43233;48.608;8.838;2023-11-19T07:35:33;0.87;;;0.87;;
32292;SDS011;43233;48.608;8.838;2023-11-19T07:37:59;1.00;;;1.00;;
32292;SDS011;43233;48.608;8.838;2023-11-19T07:40:24;2.93;;;0.90;;
32292;SDS011;43233;48.608;8.838;2023-11-19T07:42:50;2.60;;;1.10;;
32292;SDS011;43233;48.608;8.838;2023-11-19T07:45:16;0.87;;;0.87;;
32292;SDS011;43233;48.608;8.838;2023-11-19T07:47:42;2.40;;;1.80;;
32292;SDS011;43233;48.608;8.838;2023-11-19T07:50:09;1.77;;;1.60;;
32292;SDS011;43233;48.608;8.838;2023-11-19T07:52:35;4.47;;;3.43;;
32292;SDS011;43233;48.608;8.838;2023-11-19T07:55:02;7.03;;;3.30;;
32292;SDS011;43233;48.608;8.838;2023-11-19T07:57:28;5.30;;;2.63;;
32292;SDS011;43233;48.608;8.838;2023-11-19T07:59:56;2.10;;;1.80;;
32292;SDS011;43233;48.608;8.838;2023-11-19T08:02:26;5.13;;;1.37;;
32292;SDS011;43233;48.608;8.838;2023-11-19T08:04:52;2.70;;;1.10;;
32292;SDS011;43233;48.608;8.838;2023-11-19T08:07:19;2.23;;;1.97;;
32292;SDS011;43233;48.608;8.838;2023-11-19T08:09:46;2.40;;;1.70;;
32292;SDS011;43233;48.608;8.838;2023-11-19T08:12:12;1.70;;;1.60;;
32292;SDS011;43233;48.608;8.838;2023-11-19T08:14:39;1.03;;;1.03;;
32292;SDS011;43233;48.608;8.838;2023-11-19T08:17:05;2.60;;;1.47;;
32292;SDS011;43233;48.608;8.838;2023-11-19T08:19:31;1.10;;;1.10;;
32292;SDS011;43233;48.608;8.838;2023-11-19T08:21:57;2.30;;;1.13;;
32292;SDS011;43233;48.608;8.838;2023-11-19T08:24:23;1.00;;;1.00;;
32292;SDS011;43233;48.608;8.838;2023-11-19T08:26:48;1.90;;;1.40;;
32292;SDS011;43233;48.608;8.838;2023-11-19T08:29:14;2.20;;;1.90;;
32292;SDS011;43233;48.608;8.838;2023-11-19T08:31:39;1.60;;;1.50;;
32292;SDS011;43233;48.608;8.838;2023-11-19T08:34:05;2.80;;;1.30;;
32292;SDS011;43233;48.608;8.838;2023-11-19T08:36:33;1.27;;;1.17;;
32292;SDS011;43233;48.608;8.838;2023-11-19T08:38:59;1.30;;;1.30;;
32292;SDS011;43233;48.608;8.838;2023-11-19T08:41:25;1.43;;;1.33;;
32292;SDS011;43233;48.608;8.838;2023-11-19T08:43:51;1.80;;;1.70;;
32292;SDS011;43233;48.608;8.838;2023-11-19T08:46:16;1.70;;;1.60;;
32292;SDS011;43233;48.608;8.838;2023-11-19T08:48:42;2.63;;;2.43;;
32292;SDS011;43233;48.608;8.838;2023-11-19T08:51:08;1.77;;;1.67;;
32292;SDS011;43233;48.608;8.838;2023-11-19T08:53:33;2.03;;;1.87;;
32292;SDS011;43233;48.608;8.838;2023-11-19T08:55:59;2.00;;;1.87;;
32292;SDS011;43233;48.608;8.838;2023-11-19T08:58:25;1.67;;;1.57;;
32292;SDS011;43233;48.608;8.838;2023-11-19T09:00:51;2.07;;;1.83;;
32292;SDS011;43233;48.608;8.838;2023-11-19T09:03:16;2.60;;;2.10;;
32292;SDS011;43233;48.608;8.838;2023-11-19T09:05:42;2.10;;;1.80;;
32292;SDS011;43233;48.608;8.838;2023-11-19T09:08:08;5.97;;;2.20;;
32292;SDS011;43233;48.608;8.838;2023-11-19T09:10:33;3.93;;;3.13;;
32292;SDS011;43233;48.608;8.838;2023-11-19T09:12:59;2.60;;;1.60;;
32292;SDS011;43233;48.608;8.838;2023-11-19T09:15:25;2.87;;;1.97;;
32292;SDS011;43233;48.608;8.838;2023-11-19T09:17:50;5.23;;;2.23;;
32292;SDS011;43233;48.608;8.838;2023-11-19T09:20:16;5.83;;;3.20;;
32292;SDS011;43233;48.608;8.838;2023-11-19T09:22:41;2.30;;;1.00;;
32292;SDS011;43233;48.608;8.838;2023-11-19T09:25:07;1.47;;;1.20;;
32292;SDS011;43233;48.608;8.838;2023-11-19T09:27:33;3.70;;;1.90;;
32292;SDS011;43233;48.608;8.838;2023-11-19T09:29:58;2.37;;;2.17;;
32292;SDS011;43233;48.608;8.838;2023-11-19T09:32:24;1.63;;;1.53;;
32292;SDS011;43233;48.608;8.838;2023-11-19T09:34:50;1.50;;;1.20;;
32292;SDS011;43233;48.608;8.838;2023-11-19T09:37:16;0.97;;;0.87;;
32292;SDS011;43233;48.608;8.838;2023-11-19T09:39:42;0.70;;;0.70;;
32292;SDS011;43233;48.608;8.838;2023-11-19T09:42:10;0.80;;;0.80;;
32292;SDS011;43233;48.608;8.838;2023-11-19T09:44:37;0.80;;;0.80;;
32292;SDS011;43233;48.608;8.838;2023-11-19T09:47:05;2.10;;;0.90;;
32292;SDS011;43233;48.608;8.838;2023-11-19T09:49:32;0.80;;;0.80;;
32292;SDS011;43233;48.608;8.838;2023-11-19T09:52:00;0.77;;;0.77;;
32292;SDS011;43233;48.608;8.838;2023-11-19T09:54:26;0.70;;;0.70;;
32292;SDS011;43233;48.608;8.838;2023-11-19T09:56:52;1.00;;;1.00;;
32292;SDS011;43233;48.608;8.838;2023-11-19T09:59:18;1.80;;;0.90;;
32292;SDS011;43233;48.608;8.838;2023-11-19T10:01:44;0.90;;;0.90;;
32292;SDS011;43233;48.608;8.838;2023-11-19T10:04:11;0.70;;;0.70;;
32292;SDS011;43233;48.608;8.838;2023-11-19T10:06:40;1.40;;;1.30;;
32292;SDS011;43233;48.608;8.838;2023-11-19T10:09:07;0.80;;;0.80;;
32292;SDS011;43233;48.608;8.838;2023-11-19T10:11:32;0.67;;;0.67;;
32292;SDS011;43233;48.608;8.838;2023-11-19T10:13:59;1.07;;;0.97;;
32292;SDS011;43233;48.608;8.838;2023-11-19T10:16:29;0.80;;;0.80;;
32292;SDS011;43233;48.608;8.838;2023-11-19T10:18:56;0.70;;;0.70;;
32292;SDS011;43233;48.608;8.838;2023-11-19T10:21:22;0.67;;;0.67;;
32292;SDS011;43233;48.608;8.838;2023-11-19T10:23:55;0.63;;;0.60;;
32292;SDS011;43233;48.608;8.838;2023-11-19T10:26:22;0.70;;;0.70;;
32292;SDS011;43233;48.608;8.838;2023-11-19T10:28:48;1.00;;;0.87;;
32292;SDS011;43233;48.608;8.838;2023-11-19T10:31:15;1.17;;;0.60;;
32292;SDS011;43233;48.608;8.838;2023-11-19T10:33:48;1.10;;;0.70;;
32292;SDS011;43233;48.608;8.838;2023-11-19T10:36:14;0.83;;;0.63;;
32292;SDS011;43233;48.608;8.838;2023-11-19T10:38:39;0.80;;;0.80;;
32292;SDS011;43233;48.608;8.838;2023-11-19T10:41:06;0.70;;;0.70;;
32292;SDS011;43233;48.608;8.838;2023-11-19T10:43:42;0.80;;;0.67;;
32292;SDS011;43233;48.608;8.838;2023-11-19T10:46:11;1.73;;;0.80;;
32292;SDS011;43233;48.608;8.838;2023-11-19T10:48:38;2.30;;;0.70;;
32292;SDS011;43233;48.608;8.838;2023-11-19T10:51:05;0.60;;;0.60;;
32292;SDS011;43233;48.608;8.838;2023-11-19T10:53:36;1.83;;;0.70;;
32292;SDS011;43233;48.608;8.838;2023-11-19T10:56:04;1.70;;;0.80;;
32292;SDS011;43233;48.608;8.838;2023-11-19T10:58:35;0.90;;;0.70;;
32292;SDS011;43233;48.608;8.838;2023-11-19T11:01:07;0.80;;;0.80;;
32292;SDS011;43233;48.608;8.838;2023-11-19T11:03:41;0.70;;;0.60;;
32292;SDS011;43233;48.608;8.838;2023-11-19T11:06:10;0.63;;;0.63;;
32292;SDS011;43233;48.608;8.838;2023-11-19T11:08:39;0.90;;;0.80;;
32292;SDS011;43233;48.608;8.838;2023-11-19T11:11:05;0.67;;;0.60;;
32292;SDS011;43233;48.608;8.838;2023-11-19T11:13:32;0.90;;;0.60;;
32292;SDS011;43233;48.608;8.838;2023-11-19T11:15:59;1.13;;;0.70;;
32292;SDS011;43233;48.608;8.838;2023-11-19T11:18:25;1.50;;;0.70;;
32292;SDS011;43233;48.608;8.838;2023-11-19T11:20:56;0.77;;;0.67;;
32292;SDS011;43233;48.608;8.838;2023-11-19T11:29:17;0.70;;;0.60;;
32292;SDS011;43233;48.608;8.838;2023-11-19T11:34:53;0.70;;;0.60;;
32292;SDS011;43233;48.608;8.838;2023-11-19T11:37:22;0.63;;;0.63;;
32292;SDS011;43233;48.608;8.838;2023-11-19T11:39:52;0.80;;;0.60;;
32292;SDS011;43233;48.608;8.838;2023-11-19T11:48:20;0.87;;;0.60;;
32292;SDS011;43233;48.608;8.838;2023-11-19T11:50:21;0.70;;;0.50;;
32292;SDS011;43233;48.608;8.838;2023-11-19T11:58:01;0.90;;;0.60;;
32292;SDS011;43233;48.608;8.838;2023-11-19T12:00:29;0.60;;;0.60;;
32292;SDS011;43233;48.608;8.838;2023-11-19T12:02:56;0.70;;;0.70;;
32292;SDS011;43233;48.608;8.838;2023-11-19T12:05:26;1.63;;;0.80;;
32292;SDS011;43233;48.608;8.838;2023-11-19T12:07:56;1.30;;;0.63;;
32292;SDS011;43233;48.608;8.838;2023-11-19T12:10:25;1.57;;;0.60;;
32292;SDS011;43233;48.608;8.838;2023-11-19T12:12:57;0.90;;;0.50;;
32292;SDS011;43233;48.608;8.838;2023-11-19T12:15:24;1.77;;;1.10;;
32292;SDS011;43233;48.608;8.838;2023-11-19T12:17:51;1.57;;;1.00;;
32292;SDS011;43233;48.608;8.838;2023-11-19T12:20:18;2.00;;;0.80;;
32292;SDS011;43233;48.608;8.838;2023-11-19T12:22:46;1.13;;;0.77;;
32292;SDS011;43233;48.608;8.838;2023-11-19T12:25:14;2.30;;;0.60;;
32292;SDS011;43233;48.608;8.838;2023-11-19T12:27:42;2.07;;;0.90;;
32292;SDS011;43233;48.608;8.838;2023-11-19T12:30:09;1.33;;;0.90;;
32292;SDS011;43233;48.608;8.838;2023-11-19T12:35:10;0.93;;;0.70;;
32292;SDS011;43233;48.608;8.838;2023-11-19T12:40:12;0.60;;;0.60;;
32292;SDS011;43233;48.608;8.838;2023-11-19T12:42:44;0.70;;;0.70;;
32292;SDS011;43233;48.608;8.838;2023-11-19T12:45:10;1.00;;;0.70;;
32292;SDS011;43233;48.608;8.838;2023-11-19T12:47:37;1.20;;;0.60;;
32292;SDS011;43233;48.608;8.838;2023-11-19T12:50:04;0.93;;;0.70;;
32292;SDS011;43233;48.608;8.838;2023-11-19T12:52:30;0.90;;;0.80;;
32292;SDS011;43233;48.608;8.838;2023-11-19T12:54:55;0.70;;;0.70;;
32292;SDS011;43233;48.608;8.838;2023-11-19T12:57:35;2.17;;;0.73;;
32292;SDS011;43233;48.608;8.838;2023-11-19T13:00:05;1.07;;;0.70;;
32292;SDS011;43233;48.608;8.838;2023-11-19T13:02:44;1.70;;;0.70;;
32292;SDS011;43233;48.608;8.838;2023-11-19T13:07:51;0.63;;;0.63;;
32292;SDS011;43233;48.608;8.838;2023-11-19T13:10:52;0.70;;;0.60;;
32292;SDS011;43233;48.608;8.838;2023-11-19T13:13:19;0.90;;;0.90;;
32292;SDS011;43233;48.608;8.838;2023-11-19T13:15:45;0.70;;;0.60;;
32292;SDS011;43233;48.608;8.838;2023-11-19T13:18:11;1.43;;;0.70;;
32292;SDS011;43233;48.608;8.838;2023-11-19T13:20:37;1.00;;;0.90;;
32292;SDS011;43233;48.608;8.838;2023-11-19T13:23:04;0.87;;;0.83;;
32292;SDS011;43233;48.608;8.838;2023-11-19T13:25:30;1.17;;;0.90;;
32292;SDS011;43233;48.608;8.838;2023-11-19T13:27:57;0.93;;;0.70;;
32292;SDS011;43233;48.608;8.838;2023-11-19T13:30:23;1.00;;;0.70;;
32292;SDS011;43233;48.608;8.838;2023-11-19T13:32:50;1.23;;;0.80;;
32292;SDS011;43233;48.608;8.838;2023-11-19T13:35:17;1.77;;;1.10;;
32292;SDS011;43233;48.608;8.838;2023-11-19T13:37:43;0.67;;;0.67;;
32292;SDS011;43233;48.608;8.838;2023-11-19T13:40:10;0.80;;;0.80;;
32292;SDS011;43233;48.608;8.838;2023-11-19T13:42:40;1.10;;;0.80;;
32292;SDS011;43233;48.608;8.838;2023-11-19T13:45:10;3.17;;;1.00;;
32292;SDS011;43233;48.608;8.838;2023-11-19T13:47:42;1.23;;;0.90;;
32292;SDS011;43233;48.608;8.838;2023-11-19T13:50:12;0.80;;;0.73;;
32292;SDS011;43233;48.608;8.838;2023-11-19T13:52:40;0.97;;;0.87;;
32292;SDS011;43233;48.608;8.838;2023-11-19T13:55:08;0.83;;;0.83;;
32292;SDS011;43233;48.608;8.838;2023-11-19T13:57:34;1.37;;;0.90;;
32292;SDS011;43233;48.608;8.838;2023-11-19T14:00:01;0.80;;;0.70;;
32292;SDS011;43233;48.608;8.838;2023-11-19T14:02:31;2.13;;;0.90;;
32292;SDS011;43233;48.608;8.838;2023-11-19T14:04:57;2.60;;;0.90;;
32292;SDS011;43233;48.608;8.838;2023-11-19T14:07:23;0.83;;;0.80;;
32292;SDS011;43233;48.608;8.838;2023-11-19T14:09:48;1.17;;;0.80;;
32292;SDS011;43233;48.608;8.838;2023-11-19T14:12:15;0.93;;;0.83;;
32292;SDS011;43233;48.608;8.838;2023-11-19T14:14:41;1.33;;;0.80;;
32292;SDS011;43233;48.608;8.838;2023-11-19T14:17:07;2.20;;;0.80;;
32292;SDS011;43233;48.608;8.838;2023-11-19T14:19:33;4.30;;;1.07;;
32292;SDS011;43233;48.608;8.838;2023-11-19T14:21:58;1.67;;;1.03;;
32292;SDS011;43233;48.608;8.838;2023-11-19T14:24:25;1.63;;;0.90;;
32292;SDS011;43233;48.608;8.838;2023-11-19T14:26:51;1.80;;;0.90;;
32292;SDS011;43233;48.608;8.838;2023-11-19T14:29:17;1.60;;;1.10;;
32292;SDS011;43233;48.608;8.838;2023-11-19T14:31:42;0.90;;;0.70;;
32292;SDS011;43233;48.608;8.838;2023-11-19T14:34:08;1.00;;;1.00;;
32292;SDS011;43233;48.608;8.838;2023-11-19T14:36:34;0.90;;;0.80;;
32292;SDS011;43233;48.608;8.838;2023-11-19T14:38:59;3.90;;;2.77;;
32292;SDS011;43233;48.608;8.838;2023-11-19T14:41:25;1.53;;;1.00;;
32292;SDS011;43233;48.608;8.838;2023-11-19T14:43:51;1.70;;;0.87;;
32292;SDS011;43233;48.608;8.838;2023-11-19T14:46:17;3.80;;;0.90;;
32292;SDS011;43233;48.608;8.838;2023-11-19T14:48:43;1.53;;;1.00;;
32292;SDS011;43233;48.608;8.838;2023-11-19T14:51:08;1.50;;;1.40;;
32292;SDS011;43233;48.608;8.838;2023-11-19T14:53:34;0.93;;;0.90;;
32292;SDS011;43233;48.608;8.838;2023-11-19T14:55:59;1.43;;;0.87;;
32292;SDS011;43233;48.608;8.838;2023-11-19T14:58:27;1.50;;;0.80;;
32292;SDS011;43233;48.608;8.838;2023-11-19T15:00:52;1.80;;;0.90;;
32292;SDS011;43233;48.608;8.838;2023-11-19T15:03:18;0.80;;;0.80;;
32292;SDS011;43233;48.608;8.838;2023-11-19T15:05:47;1.10;;;1.00;;
32292;SDS011;43233;48.608;8.838;2023-11-19T15:08:13;3.50;;;1.30;;
32292;SDS011;43233;48.608;8.838;2023-11-19T15:10:41;1.23;;;1.13;;
32292;SDS011;43233;48.608;8.838;2023-11-19T15:13:07;1.80;;;1.47;;
32292;SDS011;43233;48.608;8.838;2023-11-19T15:15:34;1.30;;;1.20;;